sensor_id;sensor_type;location;lat;lon;timestamp;P1;durP1;ratioP1;P2;durP2;ratioP2
75090;SDS011;63674;48.048;8.306;2023-05-15T00:00:24;8.23;;;2.88;;
75090;SDS011;63674;48.048;8.306;2023-05-15T00:02:53;7.22;;;2.58;;
75090;SDS011;63674;48.048;8.306;2023-05-15T00:05:24;6.17;;;2.60;;
75090;SDS011;63674;48.048;8.306;2023-05-15T00:07:52;6.28;;;2.65;;
75090;SDS011;63674;48.048;8.306;2023-05-15T00:10:21;7.20;;;2.80;;
75090;SDS011;63674;48.048;8.306;2023-05-15T00:12:50;10.25;;;2.70;;
75090;SDS011;63674;48.048;8.306;2023-05-15T00:15:18;11.50;;;2.42;;
75090;SDS011;63674;48.048;8.306;2023-05-15T00:17:47;6.23;;;2.03;;
75090;SDS011;63674;48.048;8.306;2023-05-15T00:20:15;10.63;;;2.63;;
75090;SDS011;63674;48.048;8.306;2023-05-15T00:22:45;10.63;;;2.95;;
75090;SDS011;63674;48.048;8.306;2023-05-15T00:25:14;7.25;;;2.90;;
75090;SDS011;63674;48.048;8.306;2023-05-15T00:27:44;10.15;;;3.13;;
75090;SDS011;63674;48.048;8.306;2023-05-15T00:30:13;7.27;;;3.03;;
75090;SDS011;63674;48.048;8.306;2023-05-15T00:32:42;16.40;;;3.00;;
75090;SDS011;63674;48.048;8.306;2023-05-15T00:35:11;13.10;;;3.10;;
75090;SDS011;63674;48.048;8.306;2023-05-15T00:37:39;7.45;;;2.90;;
75090;SDS011;63674;48.048;8.306;2023-05-15T00:40:10;11.73;;;2.70;;
75090;SDS011;63674;48.048;8.306;2023-05-15T00:42:45;8.00;;;2.53;;
75090;SDS011;63674;48.048;8.306;2023-05-15T00:45:14;9.63;;;3.40;;
75090;SDS011;63674;48.048;8.306;2023-05-15T00:47:43;10.95;;;3.60;;
75090;SDS011;63674;48.048;8.306;2023-05-15T00:50:13;16.02;;;3.17;;
75090;SDS011;63674;48.048;8.306;2023-05-15T00:52:42;6.18;;;2.97;;
75090;SDS011;63674;48.048;8.306;2023-05-15T00:55:12;6.47;;;2.75;;
75090;SDS011;63674;48.048;8.306;2023-05-15T00:57:41;6.55;;;2.97;;
75090;SDS011;63674;48.048;8.306;2023-05-15T01:00:11;6.88;;;3.25;;
75090;SDS011;63674;48.048;8.306;2023-05-15T01:02:43;9.30;;;3.53;;
75090;SDS011;63674;48.048;8.306;2023-05-15T01:05:12;8.30;;;3.60;;
75090;SDS011;63674;48.048;8.306;2023-05-15T01:07:44;6.50;;;3.17;;
75090;SDS011;63674;48.048;8.306;2023-05-15T01:10:21;6.70;;;3.03;;
75090;SDS011;63674;48.048;8.306;2023-05-15T01:12:50;7.60;;;3.45;;
75090;SDS011;63674;48.048;8.306;2023-05-15T01:15:22;6.88;;;3.17;;
75090;SDS011;63674;48.048;8.306;2023-05-15T01:17:51;6.88;;;3.17;;
75090;SDS011;63674;48.048;8.306;2023-05-15T01:20:20;5.93;;;2.85;;
75090;SDS011;63674;48.048;8.306;2023-05-15T01:22:51;6.72;;;2.70;;
75090;SDS011;63674;48.048;8.306;2023-05-15T01:25:36;7.13;;;2.90;;
75090;SDS011;63674;48.048;8.306;2023-05-15T01:28:25;6.38;;;2.85;;
75090;SDS011;63674;48.048;8.306;2023-05-15T01:30:58;5.13;;;2.00;;
75090;SDS011;63674;48.048;8.306;2023-05-15T01:33:33;5.70;;;2.42;;
75090;SDS011;63674;48.048;8.306;2023-05-15T01:36:06;5.95;;;2.75;;
75090;SDS011;63674;48.048;8.306;2023-05-15T01:38:44;9.07;;;3.10;;
75090;SDS011;63674;48.048;8.306;2023-05-15T01:41:19;5.68;;;2.53;;
75090;SDS011;63674;48.048;8.306;2023-05-15T01:43:55;6.50;;;2.40;;
75090;SDS011;63674;48.048;8.306;2023-05-15T01:46:29;6.28;;;2.53;;
75090;SDS011;63674;48.048;8.306;2023-05-15T01:49:00;6.43;;;3.00;;
75090;SDS011;63674;48.048;8.306;2023-05-15T01:51:29;8.80;;;3.00;;
75090;SDS011;63674;48.048;8.306;2023-05-15T01:53:58;8.52;;;2.40;;
75090;SDS011;63674;48.048;8.306;2023-05-15T01:56:29;5.90;;;2.75;;
75090;SDS011;63674;48.048;8.306;2023-05-15T01:59:00;5.93;;;2.63;;
75090;SDS011;63674;48.048;8.306;2023-05-15T02:01:31;7.57;;;3.60;;
75090;SDS011;63674;48.048;8.306;2023-05-15T02:04:01;6.68;;;3.13;;
75090;SDS011;63674;48.048;8.306;2023-05-15T02:06:31;10.23;;;3.00;;
75090;SDS011;63674;48.048;8.306;2023-05-15T02:09:01;6.95;;;3.38;;
75090;SDS011;63674;48.048;8.306;2023-05-15T02:11:30;7.53;;;3.03;;
75090;SDS011;63674;48.048;8.306;2023-05-15T02:14:01;7.28;;;3.60;;
75090;SDS011;63674;48.048;8.306;2023-05-15T02:16:32;7.10;;;2.95;;
75090;SDS011;63674;48.048;8.306;2023-05-15T02:19:01;7.63;;;3.33;;
75090;SDS011;63674;48.048;8.306;2023-05-15T02:21:30;5.97;;;2.70;;
75090;SDS011;63674;48.048;8.306;2023-05-15T02:23:58;7.10;;;3.00;;
75090;SDS011;63674;48.048;8.306;2023-05-15T02:26:29;7.10;;;3.35;;
75090;SDS011;63674;48.048;8.306;2023-05-15T02:29:17;8.63;;;2.90;;
75090;SDS011;63674;48.048;8.306;2023-05-15T02:31:51;11.40;;;3.45;;
75090;SDS011;63674;48.048;8.306;2023-05-15T02:34:31;6.40;;;3.20;;
75090;SDS011;63674;48.048;8.306;2023-05-15T02:37:06;7.53;;;3.30;;
75090;SDS011;63674;48.048;8.306;2023-05-15T02:39:41;7.65;;;2.92;;
75090;SDS011;63674;48.048;8.306;2023-05-15T02:42:12;6.80;;;2.85;;
75090;SDS011;63674;48.048;8.306;2023-05-15T02:44:43;6.78;;;2.95;;
75090;SDS011;63674;48.048;8.306;2023-05-15T02:47:12;6.28;;;2.85;;
75090;SDS011;63674;48.048;8.306;2023-05-15T02:49:41;6.40;;;2.73;;
75090;SDS011;63674;48.048;8.306;2023-05-15T02:52:10;5.63;;;2.78;;
75090;SDS011;63674;48.048;8.306;2023-05-15T02:54:39;6.72;;;3.03;;
75090;SDS011;63674;48.048;8.306;2023-05-15T02:57:08;11.55;;;2.92;;
75090;SDS011;63674;48.048;8.306;2023-05-15T02:59:37;5.80;;;2.40;;
75090;SDS011;63674;48.048;8.306;2023-05-15T03:02:07;6.80;;;2.70;;
75090;SDS011;63674;48.048;8.306;2023-05-15T03:04:35;8.88;;;2.45;;
75090;SDS011;63674;48.048;8.306;2023-05-15T03:07:04;5.57;;;2.60;;
75090;SDS011;63674;48.048;8.306;2023-05-15T03:09:32;8.60;;;2.90;;
75090;SDS011;63674;48.048;8.306;2023-05-15T03:12:01;10.57;;;2.92;;
75090;SDS011;63674;48.048;8.306;2023-05-15T03:14:30;9.80;;;3.40;;
75090;SDS011;63674;48.048;8.306;2023-05-15T03:16:59;7.55;;;2.72;;
75090;SDS011;63674;48.048;8.306;2023-05-15T03:19:29;7.50;;;2.90;;
75090;SDS011;63674;48.048;8.306;2023-05-15T03:21:57;7.75;;;2.88;;
75090;SDS011;63674;48.048;8.306;2023-05-15T03:24:26;10.15;;;2.90;;
75090;SDS011;63674;48.048;8.306;2023-05-15T03:26:54;6.80;;;2.50;;
75090;SDS011;63674;48.048;8.306;2023-05-15T03:29:23;5.82;;;2.80;;
75090;SDS011;63674;48.048;8.306;2023-05-15T03:31:51;6.25;;;2.90;;
75090;SDS011;63674;48.048;8.306;2023-05-15T03:34:20;5.80;;;2.58;;
75090;SDS011;63674;48.048;8.306;2023-05-15T03:36:50;5.75;;;2.80;;
75090;SDS011;63674;48.048;8.306;2023-05-15T03:39:18;6.73;;;2.53;;
75090;SDS011;63674;48.048;8.306;2023-05-15T03:41:47;7.25;;;2.90;;
75090;SDS011;63674;48.048;8.306;2023-05-15T03:44:15;8.05;;;3.25;;
75090;SDS011;63674;48.048;8.306;2023-05-15T03:46:44;7.50;;;3.30;;
75090;SDS011;63674;48.048;8.306;2023-05-15T03:49:12;8.48;;;2.70;;
75090;SDS011;63674;48.048;8.306;2023-05-15T03:51:41;5.65;;;2.70;;
75090;SDS011;63674;48.048;8.306;2023-05-15T03:54:11;6.43;;;2.70;;
75090;SDS011;63674;48.048;8.306;2023-05-15T03:56:40;5.63;;;2.85;;
75090;SDS011;63674;48.048;8.306;2023-05-15T03:59:08;6.90;;;2.60;;
75090;SDS011;63674;48.048;8.306;2023-05-15T04:01:37;5.60;;;2.50;;
75090;SDS011;63674;48.048;8.306;2023-05-15T04:04:25;6.50;;;2.30;;
75090;SDS011;63674;48.048;8.306;2023-05-15T04:06:54;5.78;;;2.00;;
75090;SDS011;63674;48.048;8.306;2023-05-15T04:09:24;5.18;;;2.08;;
75090;SDS011;63674;48.048;8.306;2023-05-15T04:11:52;7.53;;;2.20;;
75090;SDS011;63674;48.048;8.306;2023-05-15T04:14:21;7.82;;;2.20;;
75090;SDS011;63674;48.048;8.306;2023-05-15T04:16:49;4.97;;;2.13;;
75090;SDS011;63674;48.048;8.306;2023-05-15T04:19:18;6.30;;;2.35;;
75090;SDS011;63674;48.048;8.306;2023-05-15T04:21:47;6.32;;;2.22;;
75090;SDS011;63674;48.048;8.306;2023-05-15T04:24:15;5.68;;;2.00;;
75090;SDS011;63674;48.048;8.306;2023-05-15T04:26:45;7.00;;;2.53;;
75090;SDS011;63674;48.048;8.306;2023-05-15T04:29:13;5.93;;;2.60;;
75090;SDS011;63674;48.048;8.306;2023-05-15T04:31:42;6.10;;;2.67;;
75090;SDS011;63674;48.048;8.306;2023-05-15T04:34:11;7.35;;;2.40;;
75090;SDS011;63674;48.048;8.306;2023-05-15T04:36:39;5.78;;;2.67;;
75090;SDS011;63674;48.048;8.306;2023-05-15T04:39:08;5.82;;;2.42;;
75090;SDS011;63674;48.048;8.306;2023-05-15T04:41:37;6.37;;;2.50;;
75090;SDS011;63674;48.048;8.306;2023-05-15T04:44:07;8.45;;;2.80;;
75090;SDS011;63674;48.048;8.306;2023-05-15T04:46:36;6.15;;;2.80;;
75090;SDS011;63674;48.048;8.306;2023-05-15T04:49:05;7.40;;;3.40;;
75090;SDS011;63674;48.048;8.306;2023-05-15T04:51:33;9.10;;;3.28;;
75090;SDS011;63674;48.048;8.306;2023-05-15T04:54:02;6.80;;;3.00;;
75090;SDS011;63674;48.048;8.306;2023-05-15T04:56:31;8.00;;;2.78;;
75090;SDS011;63674;48.048;8.306;2023-05-15T04:58:59;8.52;;;2.80;;
75090;SDS011;63674;48.048;8.306;2023-05-15T05:01:29;6.25;;;2.85;;
75090;SDS011;63674;48.048;8.306;2023-05-15T05:03:58;7.10;;;3.20;;
75090;SDS011;63674;48.048;8.306;2023-05-15T05:06:26;6.55;;;3.25;;
75090;SDS011;63674;48.048;8.306;2023-05-15T05:08:56;8.10;;;3.75;;
75090;SDS011;63674;48.048;8.306;2023-05-15T05:11:25;7.95;;;3.47;;
75090;SDS011;63674;48.048;8.306;2023-05-15T05:13:53;6.60;;;3.15;;
75090;SDS011;63674;48.048;8.306;2023-05-15T05:16:22;8.98;;;3.50;;
75090;SDS011;63674;48.048;8.306;2023-05-15T05:18:52;8.93;;;3.53;;
75090;SDS011;63674;48.048;8.306;2023-05-15T05:21:20;7.20;;;3.00;;
75090;SDS011;63674;48.048;8.306;2023-05-15T05:23:49;8.02;;;4.00;;
75090;SDS011;63674;48.048;8.306;2023-05-15T05:26:17;6.35;;;2.90;;
75090;SDS011;63674;48.048;8.306;2023-05-15T05:28:46;6.88;;;3.20;;
75090;SDS011;63674;48.048;8.306;2023-05-15T05:31:15;6.47;;;2.90;;
75090;SDS011;63674;48.048;8.306;2023-05-15T05:33:44;10.35;;;4.00;;
75090;SDS011;63674;48.048;8.306;2023-05-15T05:36:16;10.27;;;3.90;;
75090;SDS011;63674;48.048;8.306;2023-05-15T05:38:45;7.97;;;3.00;;
75090;SDS011;63674;48.048;8.306;2023-05-15T05:41:13;6.57;;;3.22;;
75090;SDS011;63674;48.048;8.306;2023-05-15T05:43:41;7.40;;;3.40;;
75090;SDS011;63674;48.048;8.306;2023-05-15T05:46:10;5.82;;;2.80;;
75090;SDS011;63674;48.048;8.306;2023-05-15T05:48:38;5.72;;;2.90;;
75090;SDS011;63674;48.048;8.306;2023-05-15T05:51:07;6.88;;;2.92;;
75090;SDS011;63674;48.048;8.306;2023-05-15T05:53:37;6.60;;;3.40;;
75090;SDS011;63674;48.048;8.306;2023-05-15T05:56:06;8.03;;;3.27;;
75090;SDS011;63674;48.048;8.306;2023-05-15T05:58:34;7.13;;;3.70;;
75090;SDS011;63674;48.048;8.306;2023-05-15T06:01:03;11.27;;;4.22;;
75090;SDS011;63674;48.048;8.306;2023-05-15T06:03:32;11.88;;;3.95;;
75090;SDS011;63674;48.048;8.306;2023-05-15T06:06:01;7.50;;;3.50;;
75090;SDS011;63674;48.048;8.306;2023-05-15T06:08:30;8.00;;;3.57;;
75090;SDS011;63674;48.048;8.306;2023-05-15T06:11:00;7.78;;;3.78;;
75090;SDS011;63674;48.048;8.306;2023-05-15T06:13:29;8.32;;;3.78;;
75090;SDS011;63674;48.048;8.306;2023-05-15T06:15:57;7.47;;;3.80;;
75090;SDS011;63674;48.048;8.306;2023-05-15T06:18:26;8.20;;;3.85;;
75090;SDS011;63674;48.048;8.306;2023-05-15T06:20:55;7.90;;;3.80;;
75090;SDS011;63674;48.048;8.306;2023-05-15T06:23:25;9.23;;;3.80;;
75090;SDS011;63674;48.048;8.306;2023-05-15T06:25:54;10.02;;;3.75;;
75090;SDS011;63674;48.048;8.306;2023-05-15T06:28:24;8.15;;;4.00;;
75090;SDS011;63674;48.048;8.306;2023-05-15T06:30:52;8.38;;;3.85;;
75090;SDS011;63674;48.048;8.306;2023-05-15T06:33:21;8.43;;;3.77;;
75090;SDS011;63674;48.048;8.306;2023-05-15T06:35:49;8.70;;;3.58;;
75090;SDS011;63674;48.048;8.306;2023-05-15T06:38:18;8.43;;;3.80;;
75090;SDS011;63674;48.048;8.306;2023-05-15T06:40:46;7.35;;;3.80;;
75090;SDS011;63674;48.048;8.306;2023-05-15T06:43:15;8.05;;;3.78;;
75090;SDS011;63674;48.048;8.306;2023-05-15T06:45:45;7.10;;;3.67;;
75090;SDS011;63674;48.048;8.306;2023-05-15T06:48:16;8.35;;;3.30;;
75090;SDS011;63674;48.048;8.306;2023-05-15T06:50:44;8.63;;;3.80;;
75090;SDS011;63674;48.048;8.306;2023-05-15T06:53:13;7.22;;;3.75;;
75090;SDS011;63674;48.048;8.306;2023-05-15T06:55:43;7.15;;;3.28;;
75090;SDS011;63674;48.048;8.306;2023-05-15T06:58:11;7.30;;;3.67;;
75090;SDS011;63674;48.048;8.306;2023-05-15T07:00:40;7.38;;;3.70;;
75090;SDS011;63674;48.048;8.306;2023-05-15T07:03:09;7.20;;;3.65;;
75090;SDS011;63674;48.048;8.306;2023-05-15T07:05:39;5.90;;;3.03;;
75090;SDS011;63674;48.048;8.306;2023-05-15T07:08:08;6.90;;;3.67;;
75090;SDS011;63674;48.048;8.306;2023-05-15T07:10:36;6.23;;;3.30;;
75090;SDS011;63674;48.048;8.306;2023-05-15T07:13:05;6.13;;;3.40;;
75090;SDS011;63674;48.048;8.306;2023-05-15T07:15:33;7.93;;;3.90;;
75090;SDS011;63674;48.048;8.306;2023-05-15T07:18:02;7.15;;;3.28;;
75090;SDS011;63674;48.048;8.306;2023-05-15T07:20:32;6.05;;;3.35;;
75090;SDS011;63674;48.048;8.306;2023-05-15T07:23:01;5.73;;;3.00;;
75090;SDS011;63674;48.048;8.306;2023-05-15T07:25:30;12.32;;;5.03;;
75090;SDS011;63674;48.048;8.306;2023-05-15T07:27:58;6.00;;;3.10;;
75090;SDS011;63674;48.048;8.306;2023-05-15T07:30:27;6.60;;;3.58;;
75090;SDS011;63674;48.048;8.306;2023-05-15T07:32:55;6.22;;;3.10;;
75090;SDS011;63674;48.048;8.306;2023-05-15T07:35:24;6.87;;;3.17;;
75090;SDS011;63674;48.048;8.306;2023-05-15T07:37:54;6.00;;;2.83;;
75090;SDS011;63674;48.048;8.306;2023-05-15T07:40:23;6.50;;;2.92;;
75090;SDS011;63674;48.048;8.306;2023-05-15T07:42:52;6.28;;;3.55;;
75090;SDS011;63674;48.048;8.306;2023-05-15T07:45:21;8.52;;;3.50;;
75090;SDS011;63674;48.048;8.306;2023-05-15T07:47:50;5.97;;;3.10;;
75090;SDS011;63674;48.048;8.306;2023-05-15T07:50:18;9.40;;;4.63;;
75090;SDS011;63674;48.048;8.306;2023-05-15T07:52:47;6.97;;;3.10;;
75090;SDS011;63674;48.048;8.306;2023-05-15T07:55:17;10.15;;;3.80;;
75090;SDS011;63674;48.048;8.306;2023-05-15T07:57:46;8.80;;;4.50;;
75090;SDS011;63674;48.048;8.306;2023-05-15T08:00:19;6.63;;;3.37;;
75090;SDS011;63674;48.048;8.306;2023-05-15T08:02:48;9.50;;;4.30;;
75090;SDS011;63674;48.048;8.306;2023-05-15T08:05:17;9.00;;;4.20;;
75090;SDS011;63674;48.048;8.306;2023-05-15T08:07:45;8.43;;;3.67;;
75090;SDS011;63674;48.048;8.306;2023-05-15T08:10:14;6.85;;;3.22;;
75090;SDS011;63674;48.048;8.306;2023-05-15T08:12:44;6.20;;;2.43;;
75090;SDS011;63674;48.048;8.306;2023-05-15T08:15:13;7.47;;;2.70;;
75090;SDS011;63674;48.048;8.306;2023-05-15T08:17:42;6.68;;;2.90;;
75090;SDS011;63674;48.048;8.306;2023-05-15T08:20:11;5.40;;;2.50;;
75090;SDS011;63674;48.048;8.306;2023-05-15T08:22:40;5.00;;;2.47;;
75090;SDS011;63674;48.048;8.306;2023-05-15T08:25:08;5.87;;;2.60;;
75090;SDS011;63674;48.048;8.306;2023-05-15T08:27:37;5.45;;;2.42;;
75090;SDS011;63674;48.048;8.306;2023-05-15T08:30:08;5.20;;;2.60;;
75090;SDS011;63674;48.048;8.306;2023-05-15T08:32:37;6.00;;;2.40;;
75090;SDS011;63674;48.048;8.306;2023-05-15T08:35:06;4.85;;;2.30;;
75090;SDS011;63674;48.048;8.306;2023-05-15T08:37:35;4.97;;;2.40;;
75090;SDS011;63674;48.048;8.306;2023-05-15T08:40:04;6.43;;;2.53;;
75090;SDS011;63674;48.048;8.306;2023-05-15T08:42:36;5.85;;;2.65;;
75090;SDS011;63674;48.048;8.306;2023-05-15T08:45:12;5.13;;;2.60;;
75090;SDS011;63674;48.048;8.306;2023-05-15T08:47:41;5.32;;;2.35;;
75090;SDS011;63674;48.048;8.306;2023-05-15T08:50:11;6.20;;;2.53;;
75090;SDS011;63674;48.048;8.306;2023-05-15T08:52:41;4.80;;;2.35;;
75090;SDS011;63674;48.048;8.306;2023-05-15T08:55:12;6.30;;;2.88;;
75090;SDS011;63674;48.048;8.306;2023-05-15T08:57:42;7.63;;;3.00;;
75090;SDS011;63674;48.048;8.306;2023-05-15T09:00:13;5.40;;;2.60;;
75090;SDS011;63674;48.048;8.306;2023-05-15T09:02:43;6.27;;;3.87;;
75090;SDS011;63674;48.048;8.306;2023-05-15T09:05:12;6.95;;;2.70;;
75090;SDS011;63674;48.048;8.306;2023-05-15T09:07:41;6.72;;;3.10;;
75090;SDS011;63674;48.048;8.306;2023-05-15T09:10:12;6.05;;;2.80;;
75090;SDS011;63674;48.048;8.306;2023-05-15T09:12:41;5.53;;;2.50;;
75090;SDS011;63674;48.048;8.306;2023-05-15T09:15:13;5.77;;;2.73;;
75090;SDS011;63674;48.048;8.306;2023-05-15T09:17:43;5.43;;;2.50;;
75090;SDS011;63674;48.048;8.306;2023-05-15T09:20:26;8.70;;;2.70;;
75090;SDS011;63674;48.048;8.306;2023-05-15T09:22:57;5.53;;;2.35;;
75090;SDS011;63674;48.048;8.306;2023-05-15T09:25:31;5.18;;;2.58;;
75090;SDS011;63674;48.048;8.306;2023-05-15T09:28:03;5.50;;;2.47;;
75090;SDS011;63674;48.048;8.306;2023-05-15T09:30:34;5.97;;;2.90;;
75090;SDS011;63674;48.048;8.306;2023-05-15T09:33:04;5.25;;;2.60;;
75090;SDS011;63674;48.048;8.306;2023-05-15T09:35:34;5.45;;;2.45;;
75090;SDS011;63674;48.048;8.306;2023-05-15T09:38:06;6.20;;;2.40;;
75090;SDS011;63674;48.048;8.306;2023-05-15T09:40:37;7.73;;;2.70;;
75090;SDS011;63674;48.048;8.306;2023-05-15T09:43:08;5.65;;;2.60;;
75090;SDS011;63674;48.048;8.306;2023-05-15T09:45:39;5.35;;;2.63;;
75090;SDS011;63674;48.048;8.306;2023-05-15T09:48:08;6.20;;;2.95;;
75090;SDS011;63674;48.048;8.306;2023-05-15T09:50:39;6.68;;;2.72;;
75090;SDS011;63674;48.048;8.306;2023-05-15T09:53:10;6.07;;;2.60;;
75090;SDS011;63674;48.048;8.306;2023-05-15T09:55:46;11.52;;;2.60;;
75090;SDS011;63674;48.048;8.306;2023-05-15T09:58:16;5.90;;;2.50;;
75090;SDS011;63674;48.048;8.306;2023-05-15T10:00:47;5.25;;;2.80;;
75090;SDS011;63674;48.048;8.306;2023-05-15T10:03:16;7.38;;;2.70;;
75090;SDS011;63674;48.048;8.306;2023-05-15T10:05:46;7.30;;;3.13;;
75090;SDS011;63674;48.048;8.306;2023-05-15T10:08:15;6.80;;;2.72;;
75090;SDS011;63674;48.048;8.306;2023-05-15T10:10:54;6.10;;;2.80;;
75090;SDS011;63674;48.048;8.306;2023-05-15T10:13:27;6.05;;;2.70;;
75090;SDS011;63674;48.048;8.306;2023-05-15T10:16:00;5.35;;;2.90;;
75090;SDS011;63674;48.048;8.306;2023-05-15T10:18:30;7.10;;;3.10;;
75090;SDS011;63674;48.048;8.306;2023-05-15T10:21:02;6.70;;;2.83;;
75090;SDS011;63674;48.048;8.306;2023-05-15T10:23:31;6.43;;;2.40;;
75090;SDS011;63674;48.048;8.306;2023-05-15T10:26:04;5.72;;;2.75;;
75090;SDS011;63674;48.048;8.306;2023-05-15T10:28:38;6.80;;;3.03;;
75090;SDS011;63674;48.048;8.306;2023-05-15T10:31:11;5.97;;;2.77;;
75090;SDS011;63674;48.048;8.306;2023-05-15T10:33:41;5.88;;;3.00;;
75090;SDS011;63674;48.048;8.306;2023-05-15T10:36:10;5.70;;;3.00;;
75090;SDS011;63674;48.048;8.306;2023-05-15T10:38:41;7.70;;;2.80;;
75090;SDS011;63674;48.048;8.306;2023-05-15T10:41:11;5.68;;;2.70;;
75090;SDS011;63674;48.048;8.306;2023-05-15T10:43:43;6.30;;;2.80;;
75090;SDS011;63674;48.048;8.306;2023-05-15T10:46:15;6.50;;;2.80;;
75090;SDS011;63674;48.048;8.306;2023-05-15T10:48:44;6.00;;;2.80;;
75090;SDS011;63674;48.048;8.306;2023-05-15T10:51:16;5.97;;;2.92;;
75090;SDS011;63674;48.048;8.306;2023-05-15T10:53:45;5.38;;;2.92;;
75090;SDS011;63674;48.048;8.306;2023-05-15T10:56:14;5.63;;;2.60;;
75090;SDS011;63674;48.048;8.306;2023-05-15T10:58:44;7.20;;;2.55;;
75090;SDS011;63674;48.048;8.306;2023-05-15T11:01:28;5.32;;;2.50;;
75090;SDS011;63674;48.048;8.306;2023-05-15T11:04:05;5.15;;;2.30;;
75090;SDS011;63674;48.048;8.306;2023-05-15T11:06:36;4.85;;;2.47;;
75090;SDS011;63674;48.048;8.306;2023-05-15T11:12:04;4.93;;;2.35;;
75090;SDS011;63674;48.048;8.306;2023-05-15T11:14:36;5.43;;;2.60;;
75090;SDS011;63674;48.048;8.306;2023-05-15T11:17:09;8.73;;;2.13;;
75090;SDS011;63674;48.048;8.306;2023-05-15T11:19:56;6.57;;;2.40;;
75090;SDS011;63674;48.048;8.306;2023-05-15T11:22:27;4.83;;;2.10;;
75090;SDS011;63674;48.048;8.306;2023-05-15T11:24:58;4.90;;;2.22;;
75090;SDS011;63674;48.048;8.306;2023-05-15T11:27:29;4.63;;;1.90;;
75090;SDS011;63674;48.048;8.306;2023-05-15T11:30:09;5.00;;;2.15;;
75090;SDS011;63674;48.048;8.306;2023-05-15T11:32:47;5.50;;;1.90;;
75090;SDS011;63674;48.048;8.306;2023-05-15T11:35:25;4.20;;;1.70;;
75090;SDS011;63674;48.048;8.306;2023-05-15T11:37:56;4.30;;;1.60;;
75090;SDS011;63674;48.048;8.306;2023-05-15T11:40:26;4.78;;;1.50;;
75090;SDS011;63674;48.048;8.306;2023-05-15T11:43:03;4.55;;;1.80;;
75090;SDS011;63674;48.048;8.306;2023-05-15T11:45:34;5.70;;;1.80;;
75090;SDS011;63674;48.048;8.306;2023-05-15T11:48:06;5.50;;;2.00;;
75090;SDS011;63674;48.048;8.306;2023-05-15T11:50:40;5.03;;;1.90;;
75090;SDS011;63674;48.048;8.306;2023-05-15T11:53:11;4.65;;;1.75;;
75090;SDS011;63674;48.048;8.306;2023-05-15T11:55:40;3.78;;;1.33;;
75090;SDS011;63674;48.048;8.306;2023-05-15T11:58:11;4.50;;;1.80;;
75090;SDS011;63674;48.048;8.306;2023-05-15T12:00:43;4.63;;;1.63;;
75090;SDS011;63674;48.048;8.306;2023-05-15T12:03:15;4.32;;;1.90;;
75090;SDS011;63674;48.048;8.306;2023-05-15T12:05:46;4.60;;;1.70;;
75090;SDS011;63674;48.048;8.306;2023-05-15T12:08:24;4.50;;;1.80;;
75090;SDS011;63674;48.048;8.306;2023-05-15T12:10:58;5.25;;;1.70;;
75090;SDS011;63674;48.048;8.306;2023-05-15T12:13:27;5.13;;;2.20;;
75090;SDS011;63674;48.048;8.306;2023-05-15T12:15:57;4.32;;;1.88;;
75090;SDS011;63674;48.048;8.306;2023-05-15T12:18:28;4.40;;;1.60;;
75090;SDS011;63674;48.048;8.306;2023-05-15T12:20:57;4.47;;;1.95;;
75090;SDS011;63674;48.048;8.306;2023-05-15T12:23:26;5.82;;;2.30;;
75090;SDS011;63674;48.048;8.306;2023-05-15T12:25:56;4.97;;;2.50;;
75090;SDS011;63674;48.048;8.306;2023-05-15T12:28:28;6.07;;;2.28;;
75090;SDS011;63674;48.048;8.306;2023-05-15T12:31:00;4.88;;;2.17;;
75090;SDS011;63674;48.048;8.306;2023-05-15T12:33:31;5.75;;;2.15;;
75090;SDS011;63674;48.048;8.306;2023-05-15T12:35:59;5.47;;;2.10;;
75090;SDS011;63674;48.048;8.306;2023-05-15T12:38:28;5.43;;;2.00;;
75090;SDS011;63674;48.048;8.306;2023-05-15T12:40:59;4.60;;;1.90;;
75090;SDS011;63674;48.048;8.306;2023-05-15T12:43:27;4.10;;;1.67;;
75090;SDS011;63674;48.048;8.306;2023-05-15T12:45:58;5.30;;;2.60;;
75090;SDS011;63674;48.048;8.306;2023-05-15T12:48:31;4.70;;;2.30;;
75090;SDS011;63674;48.048;8.306;2023-05-15T12:51:03;4.77;;;2.20;;
75090;SDS011;63674;48.048;8.306;2023-05-15T12:53:33;4.75;;;2.30;;
75090;SDS011;63674;48.048;8.306;2023-05-15T12:56:05;5.22;;;2.20;;
75090;SDS011;63674;48.048;8.306;2023-05-15T12:58:35;6.13;;;2.60;;
75090;SDS011;63674;48.048;8.306;2023-05-15T13:01:04;5.63;;;2.50;;
75090;SDS011;63674;48.048;8.306;2023-05-15T13:03:35;8.37;;;2.43;;
75090;SDS011;63674;48.048;8.306;2023-05-15T13:06:04;5.57;;;2.00;;
75090;SDS011;63674;48.048;8.306;2023-05-15T13:08:37;5.22;;;2.17;;
75090;SDS011;63674;48.048;8.306;2023-05-15T13:11:10;8.40;;;2.78;;
75090;SDS011;63674;48.048;8.306;2023-05-15T13:13:40;5.78;;;2.50;;
75090;SDS011;63674;48.048;8.306;2023-05-15T13:16:16;6.00;;;2.10;;
75090;SDS011;63674;48.048;8.306;2023-05-15T13:18:49;7.07;;;2.58;;
75090;SDS011;63674;48.048;8.306;2023-05-15T13:21:18;5.60;;;2.10;;
75090;SDS011;63674;48.048;8.306;2023-05-15T13:23:46;5.40;;;2.60;;
75090;SDS011;63674;48.048;8.306;2023-05-15T13:26:15;6.25;;;3.17;;
75090;SDS011;63674;48.048;8.306;2023-05-15T13:28:43;6.30;;;2.70;;
75090;SDS011;63674;48.048;8.306;2023-05-15T13:31:12;5.25;;;2.50;;
75090;SDS011;63674;48.048;8.306;2023-05-15T13:33:41;6.15;;;3.08;;
75090;SDS011;63674;48.048;8.306;2023-05-15T13:36:11;5.30;;;2.60;;
75090;SDS011;63674;48.048;8.306;2023-05-15T13:38:57;6.70;;;3.65;;
75090;SDS011;63674;48.048;8.306;2023-05-15T13:41:26;8.60;;;4.07;;
75090;SDS011;63674;48.048;8.306;2023-05-15T13:43:54;6.80;;;2.70;;
75090;SDS011;63674;48.048;8.306;2023-05-15T13:46:23;7.18;;;2.47;;
75090;SDS011;63674;48.048;8.306;2023-05-15T13:48:51;6.40;;;2.83;;
75090;SDS011;63674;48.048;8.306;2023-05-15T13:51:21;4.90;;;2.40;;
75090;SDS011;63674;48.048;8.306;2023-05-15T13:53:50;6.40;;;2.50;;
75090;SDS011;63674;48.048;8.306;2023-05-15T13:56:18;5.88;;;3.05;;
75090;SDS011;63674;48.048;8.306;2023-05-15T13:58:48;7.68;;;3.83;;
75090;SDS011;63674;48.048;8.306;2023-05-15T14:01:16;7.85;;;3.92;;
75090;SDS011;63674;48.048;8.306;2023-05-15T14:03:45;6.40;;;3.00;;
75090;SDS011;63674;48.048;8.306;2023-05-15T14:06:13;6.07;;;2.40;;
75090;SDS011;63674;48.048;8.306;2023-05-15T14:08:44;5.88;;;2.55;;
75090;SDS011;63674;48.048;8.306;2023-05-15T14:11:12;5.90;;;2.97;;
75090;SDS011;63674;48.048;8.306;2023-05-15T14:13:41;7.18;;;3.10;;
75090;SDS011;63674;48.048;8.306;2023-05-15T14:16:09;7.80;;;3.50;;
75090;SDS011;63674;48.048;8.306;2023-05-15T14:18:38;7.30;;;2.80;;
75090;SDS011;63674;48.048;8.306;2023-05-15T14:21:06;6.28;;;3.00;;
75090;SDS011;63674;48.048;8.306;2023-05-15T14:23:35;5.50;;;3.10;;
75090;SDS011;63674;48.048;8.306;2023-05-15T14:26:05;8.00;;;2.90;;
75090;SDS011;63674;48.048;8.306;2023-05-15T14:28:34;5.35;;;2.80;;
75090;SDS011;63674;48.048;8.306;2023-05-15T14:31:02;7.30;;;3.17;;
75090;SDS011;63674;48.048;8.306;2023-05-15T14:33:31;5.55;;;3.03;;
75090;SDS011;63674;48.048;8.306;2023-05-15T14:35:59;7.15;;;3.10;;
75090;SDS011;63674;48.048;8.306;2023-05-15T14:38:29;6.15;;;2.90;;
75090;SDS011;63674;48.048;8.306;2023-05-15T14:40:58;8.63;;;3.22;;
75090;SDS011;63674;48.048;8.306;2023-05-15T14:43:28;6.53;;;2.70;;
75090;SDS011;63674;48.048;8.306;2023-05-15T14:45:57;6.38;;;3.30;;
75090;SDS011;63674;48.048;8.306;2023-05-15T14:48:25;5.57;;;2.92;;
75090;SDS011;63674;48.048;8.306;2023-05-15T14:50:55;5.43;;;2.67;;
75090;SDS011;63674;48.048;8.306;2023-05-15T14:53:24;5.07;;;2.67;;
75090;SDS011;63674;48.048;8.306;2023-05-15T14:55:53;5.63;;;2.53;;
75090;SDS011;63674;48.048;8.306;2023-05-15T14:58:24;5.82;;;2.58;;
75090;SDS011;63674;48.048;8.306;2023-05-15T15:00:54;6.65;;;3.00;;
75090;SDS011;63674;48.048;8.306;2023-05-15T15:03:23;10.40;;;6.28;;
75090;SDS011;63674;48.048;8.306;2023-05-15T15:05:54;8.57;;;2.92;;
75090;SDS011;63674;48.048;8.306;2023-05-15T15:08:23;5.67;;;2.63;;